sensor_id;sensor_type;location;lat;lon;timestamp;pressure;altitude;pressure_sealevel;temperature;humidity
42887;BME280;29032;56.028;92.904;2023-05-09T00:00:52;99064.28;;;12.73;35.46
42887;BME280;29032;56.028;92.904;2023-05-09T00:05:54;99057.72;;;12.84;36.07
42887;BME280;29032;56.028;92.904;2023-05-09T00:11:14;99053.03;;;13.08;35.14
42887;BME280;29032;56.028;92.904;2023-05-09T00:16:17;99043.00;;;13.05;35.54
42887;BME280;29032;56.028;92.904;2023-05-09T00:21:19;99045.59;;;13.02;35.73
42887;BME280;29032;56.028;92.904;2023-05-09T00:26:22;99048.53;;;12.97;35.68
42887;BME280;29032;56.028;92.904;2023-05-09T00:31:25;99041.16;;;13.07;34.90
42887;BME280;29032;56.028;92.904;2023-05-09T00:36:45;99049.34;;;13.13;34.72
42887;BME280;29032;56.028;92.904;2023-05-09T00:41:47;99036.13;;;13.06;35.05
42887;BME280;29032;56.028;92.904;2023-05-09T00:52:11;99016.38;;;13.24;35.04
42887;BME280;29032;56.028;92.904;2023-05-09T00:57:13;99023.69;;;13.43;34.80
42887;BME280;29032;56.028;92.904;2023-05-09T01:07:45;99011.78;;;13.86;34.59
42887;BME280;29032;56.028;92.904;2023-05-09T01:13:18;99011.84;;;14.01;34.13
42887;BME280;29032;56.028;92.904;2023-05-09T01:18:31;99014.09;;;14.18;33.78
42887;BME280;29032;56.028;92.904;2023-05-09T01:34:51;99016.19;;;14.79;32.35
42887;BME280;29032;56.028;92.904;2023-05-09T01:39:57;99016.91;;;14.95;32.73
42887;BME280;29032;56.028;92.904;2023-05-09T01:45:01;99006.22;;;15.16;32.87
42887;BME280;29032;56.028;92.904;2023-05-09T01:50:08;99009.50;;;15.37;32.57
42887;BME280;29032;56.028;92.904;2023-05-09T01:55:11;98971.44;;;15.42;32.09
42887;BME280;29032;56.028;92.904;2023-05-09T02:00:14;98986.56;;;15.87;31.29
42887;BME280;29032;56.028;92.904;2023-05-09T02:05:20;98993.44;;;16.18;31.01
42887;BME280;29032;56.028;92.904;2023-05-09T02:10:27;98991.72;;;16.48;30.61
42887;BME280;29032;56.028;92.904;2023-05-09T02:20:53;98974.84;;;16.98;30.27
42887;BME280;29032;56.028;92.904;2023-05-09T02:25:55;98985.69;;;17.11;30.17
42887;BME280;29032;56.028;92.904;2023-05-09T02:36:40;98975.88;;;17.37;28.75
42887;BME280;29032;56.028;92.904;2023-05-09T02:41:47;98966.84;;;17.56;28.95
42887;BME280;29032;56.028;92.904;2023-05-09T02:46:49;98988.38;;;17.71;28.77
42887;BME280;29032;56.028;92.904;2023-05-09T02:51:53;98974.34;;;17.98;28.52
42887;BME280;29032;56.028;92.904;2023-05-09T02:56:55;98982.28;;;18.18;28.81
42887;BME280;29032;56.028;92.904;2023-05-09T03:01:57;98977.75;;;18.42;27.80
42887;BME280;29032;56.028;92.904;2023-05-09T03:07:01;98969.00;;;18.75;27.30
42887;BME280;29032;56.028;92.904;2023-05-09T03:12:07;98964.59;;;19.11;26.01
42887;BME280;29032;56.028;92.904;2023-05-09T03:17:10;98969.28;;;19.56;25.79
42887;BME280;29032;56.028;92.904;2023-05-09T03:22:15;98977.06;;;19.97;25.51
42887;BME280;29032;56.028;92.904;2023-05-09T03:38:12;98949.56;;;20.48;25.67
42887;BME280;29032;56.028;92.904;2023-05-09T03:43:14;98955.47;;;20.52;25.54
42887;BME280;29032;56.028;92.904;2023-05-09T03:48:16;98963.41;;;20.65;25.29
42887;BME280;29032;56.028;92.904;2023-05-09T03:53:25;98965.34;;;20.84;24.31
42887;BME280;29032;56.028;92.904;2023-05-09T03:58:29;98960.41;;;21.06;23.47
42887;BME280;29032;56.028;92.904;2023-05-09T04:03:31;98958.81;;;21.24;23.92
42887;BME280;29032;56.028;92.904;2023-05-09T04:08:35;98948.09;;;21.44;23.55
42887;BME280;29032;56.028;92.904;2023-05-09T04:13:39;98946.16;;;21.58;23.34
42887;BME280;29032;56.028;92.904;2023-05-09T04:18:52;98960.69;;;21.76;23.18
42887;BME280;29032;56.028;92.904;2023-05-09T04:23:55;98964.91;;;21.87;22.93
42887;BME280;29032;56.028;92.904;2023-05-09T04:34:29;98972.81;;;22.12;22.76
42887;BME280;29032;56.028;92.904;2023-05-09T04:39:36;98972.06;;;22.35;21.97
42887;BME280;29032;56.028;92.904;2023-05-09T04:44:48;98977.22;;;22.50;21.87
42887;BME280;29032;56.028;92.904;2023-05-09T04:49:50;98972.78;;;22.70;21.81
42887;BME280;29032;56.028;92.904;2023-05-09T04:54:54;98969.44;;;22.86;21.36
42887;BME280;29032;56.028;92.904;2023-05-09T04:59:59;98962.28;;;22.96;21.49
42887;BME280;29032;56.028;92.904;2023-05-09T05:05:01;98956.19;;;23.14;21.37
42887;BME280;29032;56.028;92.904;2023-05-09T05:10:06;98953.63;;;23.31;21.40
42887;BME280;29032;56.028;92.904;2023-05-09T05:20:30;98933.56;;;23.78;20.91
42887;BME280;29032;56.028;92.904;2023-05-09T05:30:55;98928.41;;;24.14;20.75
42887;BME280;29032;56.028;92.904;2023-05-09T05:35:57;98915.28;;;24.34;20.81
42887;BME280;29032;56.028;92.904;2023-05-09T05:41:19;98914.53;;;24.47;20.64
42887;BME280;29032;56.028;92.904;2023-05-09T05:46:22;98916.72;;;24.63;21.11
42887;BME280;29032;56.028;92.904;2023-05-09T05:51:24;98910.63;;;24.82;20.46
42887;BME280;29032;56.028;92.904;2023-05-09T05:56:28;98909.59;;;25.05;20.87
42887;BME280;29032;56.028;92.904;2023-05-09T06:01:31;98915.31;;;25.21;20.73
42887;BME280;29032;56.028;92.904;2023-05-09T06:06:52;98915.41;;;25.52;20.10
42887;BME280;29032;56.028;92.904;2023-05-09T06:11:56;98931.94;;;25.72;19.87
42887;BME280;29032;56.028;92.904;2023-05-09T06:16:58;98927.56;;;25.39;19.61
42887;BME280;29032;56.028;92.904;2023-05-09T06:22:00;98926.53;;;25.33;19.68
42887;BME280;29032;56.028;92.904;2023-05-09T06:27:04;98935.88;;;25.35;19.95
42887;BME280;29032;56.028;92.904;2023-05-09T06:32:06;98940.91;;;25.50;19.98
42887;BME280;29032;56.028;92.904;2023-05-09T06:37:26;98936.78;;;25.85;19.78
42887;BME280;29032;56.028;92.904;2023-05-09T06:42:30;98939.84;;;26.05;19.08
42887;BME280;29032;56.028;92.904;2023-05-09T06:47:32;98933.06;;;26.28;19.49
42887;BME280;29032;56.028;92.904;2023-05-09T06:52:34;98933.41;;;26.36;19.06
42887;BME280;29032;56.028;92.904;2023-05-09T06:57:38;98936.22;;;26.52;18.59
42887;BME280;29032;56.028;92.904;2023-05-09T07:02:40;98947.19;;;26.59;18.15
42887;BME280;29032;56.028;92.904;2023-05-09T07:07:42;98929.88;;;26.53;18.16
42887;BME280;29032;56.028;92.904;2023-05-09T07:12:45;98960.91;;;26.47;18.41
42887;BME280;29032;56.028;92.904;2023-05-09T07:17:48;98934.78;;;26.35;18.65
42887;BME280;29032;56.028;92.904;2023-05-09T07:22:50;98935.94;;;26.46;18.51
42887;BME280;29032;56.028;92.904;2023-05-09T07:27:56;98928.19;;;26.64;18.89
42887;BME280;29032;56.028;92.904;2023-05-09T07:32:58;98927.91;;;26.74;18.33
42887;BME280;29032;56.028;92.904;2023-05-09T07:38:18;98931.41;;;26.72;18.35
42887;BME280;29032;56.028;92.904;2023-05-09T07:43:22;98940.50;;;26.69;17.96
42887;BME280;29032;56.028;92.904;2023-05-09T07:48:24;98933.88;;;26.64;17.77
42887;BME280;29032;56.028;92.904;2023-05-09T07:53:26;98932.16;;;26.57;18.07
42887;BME280;29032;56.028;92.904;2023-05-09T07:58:29;98925.78;;;26.74;18.54
42887;BME280;29032;56.028;92.904;2023-05-09T08:03:31;98922.31;;;26.94;17.83
42887;BME280;29032;56.028;92.904;2023-05-09T08:08:33;98917.22;;;27.08;17.74
42887;BME280;29032;56.028;92.904;2023-05-09T08:13:55;98898.72;;;27.27;17.95
42887;BME280;29032;56.028;92.904;2023-05-09T08:18:57;98917.63;;;27.36;17.93
42887;BME280;29032;56.028;92.904;2023-05-09T08:23:59;98907.69;;;27.37;17.87
42887;BME280;29032;56.028;92.904;2023-05-09T08:29:03;98902.16;;;27.41;17.69
42887;BME280;29032;56.028;92.904;2023-05-09T08:34:23;98897.81;;;27.58;17.76
42887;BME280;29032;56.028;92.904;2023-05-09T08:45:06;98900.84;;;27.82;17.61
42887;BME280;29032;56.028;92.904;2023-05-09T08:50:10;98894.59;;;27.67;17.29
42887;BME280;29032;56.028;92.904;2023-05-09T08:55:31;98894.59;;;27.67;17.57
42887;BME280;29032;56.028;92.904;2023-05-09T09:00:54;98911.44;;;27.41;17.63
42887;BME280;29032;56.028;92.904;2023-05-09T09:05:57;98902.59;;;27.33;17.57
42887;BME280;29032;56.028;92.904;2023-05-09T09:10:59;98890.91;;;27.45;18.18
42887;BME280;29032;56.028;92.904;2023-05-09T09:16:03;98890.16;;;27.62;17.57
42887;BME280;29032;56.028;92.904;2023-05-09T09:21:09;98896.00;;;27.66;17.87
42887;BME280;29032;56.028;92.904;2023-05-09T09:31:34;98907.44;;;27.49;18.05
42887;BME280;29032;56.028;92.904;2023-05-09T09:47:37;98919.28;;;26.72;18.99
42887;BME280;29032;56.028;92.904;2023-05-09T09:58:15;98914.97;;;26.71;19.26
42887;BME280;29032;56.028;92.904;2023-05-09T10:03:19;98926.75;;;26.47;19.47
42887;BME280;29032;56.028;92.904;2023-05-09T10:08:21;98943.97;;;26.18;19.54
42887;BME280;29032;56.028;92.904;2023-05-09T10:13:25;98930.19;;;25.96;20.27
42887;BME280;29032;56.028;92.904;2023-05-09T10:18:29;98957.06;;;25.93;20.50
42887;BME280;29032;56.028;92.904;2023-05-09T10:23:36;98964.75;;;25.75;21.15
42887;BME280;29032;56.028;92.904;2023-05-09T10:28:39;98963.94;;;25.43;21.56
42887;BME280;29032;56.028;92.904;2023-05-09T10:34:03;98964.19;;;25.33;21.55
42887;BME280;29032;56.028;92.904;2023-05-09T10:39:06;98997.06;;;25.09;21.58
42887;BME280;29032;56.028;92.904;2023-05-09T10:44:08;98996.88;;;25.34;21.31
42887;BME280;29032;56.028;92.904;2023-05-09T10:49:12;99007.09;;;25.39;21.14
42887;BME280;29032;56.028;92.904;2023-05-09T10:54:33;99008.06;;;25.30;20.88
42887;BME280;29032;56.028;92.904;2023-05-09T10:59:55;99011.31;;;24.81;21.13
42887;BME280;29032;56.028;92.904;2023-05-09T11:05:15;99016.53;;;24.45;21.69
42887;BME280;29032;56.028;92.904;2023-05-09T11:10:18;99022.03;;;24.16;21.84
42887;BME280;29032;56.028;92.904;2023-05-09T11:21:21;99015.28;;;23.96;22.13
42887;BME280;29032;56.028;92.904;2023-05-09T11:26:41;99030.66;;;24.04;22.14
42887;BME280;29032;56.028;92.904;2023-05-09T11:32:04;99039.75;;;23.77;21.99
42887;BME280;29032;56.028;92.904;2023-05-09T11:37:28;99028.41;;;23.52;22.29
42887;BME280;29032;56.028;92.904;2023-05-09T11:47:52;99030.22;;;23.33;22.60
42887;BME280;29032;56.028;92.904;2023-05-09T11:58:16;99044.00;;;23.27;22.59
42887;BME280;29032;56.028;92.904;2023-05-09T12:03:18;99062.75;;;23.09;22.18
42887;BME280;29032;56.028;92.904;2023-05-09T12:08:23;99061.19;;;22.94;22.29
42887;BME280;29032;56.028;92.904;2023-05-09T12:13:25;99062.06;;;22.73;21.92
42887;BME280;29032;56.028;92.904;2023-05-09T12:18:27;99057.91;;;22.63;21.74
42887;BME280;29032;56.028;92.904;2023-05-09T12:23:35;99059.38;;;22.64;22.02
42887;BME280;29032;56.028;92.904;2023-05-09T12:28:37;99050.72;;;22.50;21.52
42887;BME280;29032;56.028;92.904;2023-05-09T12:33:39;99058.56;;;22.40;22.01
42887;BME280;29032;56.028;92.904;2023-05-09T12:38:53;99056.88;;;22.46;21.67
42887;BME280;29032;56.028;92.904;2023-05-09T12:43:55;99049.97;;;22.38;21.54
42887;BME280;29032;56.028;92.904;2023-05-09T12:48:57;99055.63;;;22.38;21.61
42887;BME280;29032;56.028;92.904;2023-05-09T12:54:03;99058.56;;;22.40;21.55
42887;BME280;29032;56.028;92.904;2023-05-09T12:59:09;99065.22;;;22.33;21.70
42887;BME280;29032;56.028;92.904;2023-05-09T13:04:30;99051.28;;;22.01;21.82
42887;BME280;29032;56.028;92.904;2023-05-09T13:15:07;99080.41;;;22.04;22.02
42887;BME280;29032;56.028;92.904;2023-05-09T13:20:27;99075.97;;;22.01;21.90
42887;BME280;29032;56.028;92.904;2023-05-09T13:25:49;99079.41;;;21.99;22.48
42887;BME280;29032;56.028;92.904;2023-05-09T13:31:09;99079.75;;;21.94;22.62
42887;BME280;29032;56.028;92.904;2023-05-09T13:36:11;99085.16;;;21.68;22.29
42887;BME280;29032;56.028;92.904;2023-05-09T13:41:15;99103.34;;;21.65;23.06
42887;BME280;29032;56.028;92.904;2023-05-09T13:46:35;99099.31;;;21.47;22.61
42887;BME280;29032;56.028;92.904;2023-05-09T13:51:38;99103.97;;;21.42;22.55
42887;BME280;29032;56.028;92.904;2023-05-09T13:56:41;99105.78;;;21.38;22.74
42887;BME280;29032;56.028;92.904;2023-05-09T14:01:43;99112.84;;;21.27;22.72
42887;BME280;29032;56.028;92.904;2023-05-09T14:07:04;99113.50;;;21.37;22.73
42887;BME280;29032;56.028;92.904;2023-05-09T14:12:07;99133.97;;;21.16;22.67
42887;BME280;29032;56.028;92.904;2023-05-09T14:17:09;99152.88;;;21.04;22.78
42887;BME280;29032;56.028;92.904;2023-05-09T14:22:12;99149.69;;;20.88;22.95
42887;BME280;29032;56.028;92.904;2023-05-09T14:27:34;99175.88;;;20.70;23.48
42887;BME280;29032;56.028;92.904;2023-05-09T14:32:36;99192.84;;;20.41;24.60
42887;BME280;29032;56.028;92.904;2023-05-09T14:37:38;99207.97;;;20.06;25.41
42887;BME280;29032;56.028;92.904;2023-05-09T14:42:41;99229.28;;;19.61;25.92
42887;BME280;29032;56.028;92.904;2023-05-09T14:47:44;99242.41;;;19.02;26.06
42887;BME280;29032;56.028;92.904;2023-05-09T14:53:04;99264.09;;;18.92;25.85
42887;BME280;29032;56.028;92.904;2023-05-09T14:58:07;99270.59;;;18.51;26.78
42887;BME280;29032;56.028;92.904;2023-05-09T15:08:30;99288.13;;;18.07;27.22
42887;BME280;29032;56.028;92.904;2023-05-09T15:13:33;99291.50;;;18.23;27.66
42887;BME280;29032;56.028;92.904;2023-05-09T15:18:35;99310.53;;;18.32;27.13
42887;BME280;29032;56.028;92.904;2023-05-09T15:23:37;99311.09;;;18.30;27.21
42887;BME280;29032;56.028;92.904;2023-05-09T15:28:41;99337.06;;;18.38;27.11
42887;BME280;29032;56.028;92.904;2023-05-09T15:39:22;99353.22;;;18.30;27.92
42887;BME280;29032;56.028;92.904;2023-05-09T15:44:26;99350.88;;;18.02;27.99
42887;BME280;29032;56.028;92.904;2023-05-09T15:49:28;99367.06;;;17.93;28.30
42887;BME280;29032;56.028;92.904;2023-05-09T15:54:32;99381.31;;;17.88;29.38
42887;BME280;29032;56.028;92.904;2023-05-09T15:59:35;99401.91;;;17.90;28.44
42887;BME280;29032;56.028;92.904;2023-05-09T16:10:16;99419.72;;;17.85;28.43
42887;BME280;29032;56.028;92.904;2023-05-09T16:15:38;99432.31;;;18.02;27.54
42887;BME280;29032;56.028;92.904;2023-05-09T16:20:40;99444.00;;;17.58;28.56
42887;BME280;29032;56.028;92.904;2023-05-09T16:31:04;99465.47;;;17.23;28.73
42887;BME280;29032;56.028;92.904;2023-05-09T16:36:06;99480.66;;;17.12;28.62
42887;BME280;29032;56.028;92.904;2023-05-09T16:41:27;99492.50;;;16.88;29.01
42887;BME280;29032;56.028;92.904;2023-05-09T16:46:30;99502.97;;;16.87;29.04
42887;BME280;29032;56.028;92.904;2023-05-09T16:51:33;99513.97;;;16.93;28.31
42887;BME280;29032;56.028;92.904;2023-05-09T16:57:11;99519.22;;;16.73;28.11
42887;BME280;29032;56.028;92.904;2023-05-09T17:02:15;99541.06;;;16.37;28.24
42887;BME280;29032;56.028;92.904;2023-05-09T17:07:17;99550.34;;;16.01;28.83
42887;BME280;29032;56.028;92.904;2023-05-09T17:12:19;99572.09;;;15.80;28.87
42887;BME280;29032;56.028;92.904;2023-05-09T17:17:23;99606.28;;;15.57;30.16
42887;BME280;29032;56.028;92.904;2023-05-09T17:22:24;99632.31;;;15.16;31.30
42887;BME280;29032;56.028;92.904;2023-05-09T17:27:27;99635.97;;;14.61;32.47
42887;BME280;29032;56.028;92.904;2023-05-09T17:32:30;99646.97;;;14.46;32.67
42887;BME280;29032;56.028;92.904;2023-05-09T17:37:50;99656.63;;;14.45;33.05
42887;BME280;29032;56.028;92.904;2023-05-09T17:43:10;99670.63;;;14.32;32.56
42887;BME280;29032;56.028;92.904;2023-05-09T17:48:14;99686.59;;;13.97;34.18
42887;BME280;29032;56.028;92.904;2023-05-09T17:53:16;99689.38;;;13.71;34.32
42887;BME280;29032;56.028;92.904;2023-05-09T17:58:18;99713.06;;;13.51;35.49
42887;BME280;29032;56.028;92.904;2023-05-09T18:03:40;99727.09;;;13.45;36.11
42887;BME280;29032;56.028;92.904;2023-05-09T18:08:42;99756.56;;;13.09;36.82
42887;BME280;29032;56.028;92.904;2023-05-09T18:37:25;99791.09;;;11.51;42.63
42887;BME280;29032;56.028;92.904;2023-05-09T18:42:28;99802.59;;;11.36;47.05
42887;BME280;29032;56.028;92.904;2023-05-09T18:47:30;99822.44;;;11.16;46.08
42887;BME280;29032;56.028;92.904;2023-05-09T18:52:32;99837.75;;;10.93;47.93
42887;BME280;29032;56.028;92.904;2023-05-09T18:57:36;99850.19;;;10.80;49.38
42887;BME280;29032;56.028;92.904;2023-05-09T19:02:38;99854.00;;;10.66;49.17
42887;BME280;29032;56.028;92.904;2023-05-09T19:07:58;99875.16;;;10.69;48.62
42887;BME280;29032;56.028;92.904;2023-05-09T19:13:02;99879.97;;;10.69;48.96
42887;BME280;29032;56.028;92.904;2023-05-09T19:18:05;99882.03;;;10.57;51.05
42887;BME280;29032;56.028;92.904;2023-05-09T19:23:07;99896.59;;;10.80;49.58
42887;BME280;29032;56.028;92.904;2023-05-09T19:28:28;99898.00;;;11.03;48.48
42887;BME280;29032;56.028;92.904;2023-05-09T19:33:32;99905.88;;;10.99;50.47
42887;BME280;29032;56.028;92.904;2023-05-09T19:38:34;99902.91;;;10.86;49.68
42887;BME280;29032;56.028;92.904;2023-05-09T19:43:56;99911.75;;;10.79;51.62
42887;BME280;29032;56.028;92.904;2023-05-09T19:49:16;99914.75;;;10.92;50.68
42887;BME280;29032;56.028;92.904;2023-05-09T19:54:18;99922.06;;;10.90;49.71
42887;BME280;29032;56.028;92.904;2023-05-09T19:59:22;99920.38;;;10.59;50.91
42887;BME280;29032;56.028;92.904;2023-05-09T20:09:44;99917.38;;;10.57;49.32
42887;BME280;29032;56.028;92.904;2023-05-09T20:14:48;99941.38;;;10.32;50.01
42887;BME280;29032;56.028;92.904;2023-05-09T20:19:50;99943.91;;;10.18;51.10
42887;BME280;29032;56.028;92.904;2023-05-09T20:24:52;99947.72;;;10.21;49.15
42887;BME280;29032;56.028;92.904;2023-05-09T20:29:55;99939.63;;;10.23;52.11
42887;BME280;29032;56.028;92.904;2023-05-09T20:34:57;99927.72;;;10.45;51.48
42887;BME280;29032;56.028;92.904;2023-05-09T20:40:00;99920.59;;;10.66;51.57
42887;BME280;29032;56.028;92.904;2023-05-09T20:45:04;99904.19;;;10.85;51.44
42887;BME280;29032;56.028;92.904;2023-05-09T20:50:07;99906.91;;;10.91;51.19
42887;BME280;29032;56.028;92.904;2023-05-09T20:55:09;99922.84;;;10.79;51.03
42887;BME280;29032;56.028;92.904;2023-05-09T21:00:13;99928.16;;;10.82;51.86
42887;BME280;29032;56.028;92.904;2023-05-09T21:05:15;99948.38;;;10.66;52.16
42887;BME280;29032;56.028;92.904;2023-05-09T21:10:17;99957.75;;;10.52;51.24
42887;BME280;29032;56.028;92.904;2023-05-09T21:15:21;99956.47;;;10.59;52.76
42887;BME280;29032;56.028;92.904;2023-05-09T21:20:23;99966.56;;;10.50;53.16
42887;BME280;29032;56.028;92.904;2023-05-09T21:25:25;99974.38;;;10.41;53.33
42887;BME280;29032;56.028;92.904;2023-05-09T21:30:29;99988.25;;;10.46;52.78
42887;BME280;29032;56.028;92.904;2023-05-09T21:35:31;99977.66;;;10.56;52.49
42887;BME280;29032;56.028;92.904;2023-05-09T21:40:33;99982.41;;;10.72;51.13
42887;BME280;29032;56.028;92.904;2023-05-09T21:45:36;99987.44;;;10.91;51.31
42887;BME280;29032;56.028;92.904;2023-05-09T21:50:38;100001.81;;;10.95;50.19
42887;BME280;29032;56.028;92.904;2023-05-09T21:55:40;100007.13;;;10.93;51.76
42887;BME280;29032;56.028;92.904;2023-05-09T22:00:43;100009.94;;;10.81;52.00
42887;BME280;29032;56.028;92.904;2023-05-09T22:05:45;100019.78;;;10.77;51.52
42887;BME280;29032;56.028;92.904;2023-05-09T22:11:06;100018.72;;;10.97;49.96
42887;BME280;29032;56.028;92.904;2023-05-09T22:16:09;100024.56;;;10.88;50.75
42887;BME280;29032;56.028;92.904;2023-05-09T22:21:11;100030.09;;;10.88;51.04
42887;BME280;29032;56.028;92.904;2023-05-09T22:26:14;100030.56;;;10.97;50.07
42887;BME280;29032;56.028;92.904;2023-05-09T22:31:17;100033.59;;;11.05;50.19
42887;BME280;29032;56.028;92.904;2023-05-09T22:36:19;100045.97;;;11.04;50.18
42887;BME280;29032;56.028;92.904;2023-05-09T22:41:21;100061.41;;;10.82;50.50
42887;BME280;29032;56.028;92.904;2023-05-09T22:46:25;100055.09;;;10.60;51.18
42887;BME280;29032;56.028;92.904;2023-05-09T22:51:27;100059.41;;;10.44;50.92
42887;BME280;29032;56.028;92.904;2023-05-09T22:56:29;100064.69;;;10.08;51.64
42887;BME280;29032;56.028;92.904;2023-05-09T23:01:50;100063.66;;;10.00;50.63
42887;BME280;29032;56.028;92.904;2023-05-09T23:06:52;100070.69;;;9.95;52.69
42887;BME280;29032;56.028;92.904;2023-05-09T23:11:55;100079.53;;;9.94;51.34
42887;BME280;29032;56.028;92.904;2023-05-09T23:17:16;100091.13;;;9.98;51.09
42887;BME280;29032;56.028;92.904;2023-05-09T23:22:19;100092.41;;;9.32;53.38
42887;BME280;29032;56.028;92.904;2023-05-09T23:27:39;100101.22;;;9.36;50.87
42887;BME280;29032;56.028;92.904;2023-05-09T23:32:42;100096.91;;;9.24;51.69
42887;BME280;29032;56.028;92.904;2023-05-09T23:37:44;100115.97;;;9.22;50.08
42887;BME280;29032;56.028;92.904;2023-05-09T23:43:04;100112.81;;;8.97;49.96
42887;BME280;29032;56.028;92.904;2023-05-09T23:48:08;100122.88;;;9.00;48.40
42887;BME280;29032;56.028;92.904;2023-05-09T23:58:30;100129.31;;;8.86;46.92
